Time;durP1;ratioP1;P1;durP2;ratioP2;P2;SDS_P1;SDS_P2;PMS_P1;PMS_P2;Temp;Humidity;BMP_temperature;BMP_pressure;BME280_temperature;BME280_humidity;BME280_pressure;Samples;Min_cycle;Max_cycle;Signal;HPM_P1;HPM_P2
2022/04/24 11:21:29;;;;;;;8.05;5.60;;;;;;;;;;4220457;27;118023;-63
2022/04/24 13:21:48;;;;;;;4.32;3.78;;;19.90;69.80;;;;;;4223951;27;20356;-64
2022/04/24 13:23:49;;;;;;;10.13;3.75;;;20.00;70.70;;;;;;4204559;27;20032;-64
2022/04/24 13:25:50;;;;;;;5.60;4.20;;;20.10;71.10;;;;;;4205757;27;20021;-64
2022/04/24 13:27:50;;;;;;;7.13;3.75;;;20.20;69.90;;;;;;4203095;27;20036;-64
2022/04/24 13:29:51;;;;;;;5.88;4.15;;;20.10;70.70;;;;;;4200457;28;21133;-64
2022/04/24 13:31:52;;;;;;;4.85;3.65;;;20.10;68.70;;;;;;4207082;27;20082;-64
2022/04/24 13:33:53;;;;;;;6.32;4.00;;;20.10;69.30;;;;;;4205876;27;20029;-64
2022/04/24 13:35:55;;;;;;;5.32;3.92;;;20.00;68.50;;;;;;4205356;27;20028;-64
2022/04/24 13:40:16;;;;;;;5.82;3.55;;;20.00;68.90;;;;;;4202994;28;20123;-64
2022/04/24 13:42:17;;;;;;;4.57;3.63;;;20.10;71.80;;;;;;4203150;28;20048;-65
2022/04/24 13:44:17;;;;;;;5.03;3.40;;;20.20;68.50;;;;;;4187246;28;20115;-65
2022/04/24 13:46:18;;;;;;;4.55;3.20;;;20.20;69.00;;;;;;4203452;27;20036;-64
2022/04/24 13:48:21;;;;;;;4.82;3.78;;;20.20;68.60;;;;;;4199094;27;20067;-63
2022/04/24 13:50:22;;;;;;;5.55;4.30;;;20.10;66.20;;;;;;4198249;27;20044;-63
2022/04/24 13:52:23;;;;;;;4.68;3.78;;;19.60;62.80;;;;;;4206516;28;20039;-64
2022/04/24 13:54:24;;;;;;;6.90;3.58;;;19.50;62.50;;;;;;4202280;28;20032;-63
2022/04/24 13:56:24;;;;;;;4.32;3.40;;;19.30;64.90;;;;;;4200758;28;20035;-64
2022/04/24 13:58:25;;;;;;;4.88;3.78;;;19.50;69.50;;;;;;4205856;28;20032;-63
2022/04/24 14:00:26;;;;;;;3.88;3.17;;;19.50;68.20;;;;;;4203309;28;20102;-64
2022/04/24 14:02:28;;;;;;;5.25;3.15;;;19.60;65.60;;;;;;4200551;28;20037;-64
2022/04/24 14:04:29;;;;;;;4.88;3.47;;;19.50;65.40;;;;;;4202288;28;20567;-64
2022/04/24 14:06:31;;;;;;;4.97;3.40;;;19.60;64.90;;;;;;4206249;28;20065;-63
2022/04/24 14:08:32;;;;;;;4.43;3.40;;;19.50;63.40;;;;;;4201716;28;20063;-64
2022/04/24 14:10:32;;;;;;;5.47;3.55;;;19.50;64.80;;;;;;4201005;28;20033;-63
2022/04/24 14:12:34;;;;;;;4.32;3.28;;;19.40;63.30;;;;;;4197570;28;20119;-63
2022/04/24 14:14:34;;;;;;;4.57;3.30;;;19.40;63.60;;;;;;4205167;28;20123;-63
2022/04/24 14:16:35;;;;;;;5.32;3.50;;;19.60;66.50;;;;;;4200983;28;20480;-63
2022/04/24 14:18:35;;;;;;;5.45;3.70;;;19.50;62.40;;;;;;4196804;28;20503;-64
2022/04/24 14:20:36;;;;;;;4.05;3.17;;;19.30;60.90;;;;;;4195896;28;20060;-63
2022/04/24 14:22:37;;;;;;;9.57;3.10;;;19.20;61.80;;;;;;4204880;28;20031;-64
2022/04/24 14:24:38;;;;;;;4.97;3.30;;;18.70;58.90;;;;;;4205731;28;20032;-64
2022/04/24 14:26:38;;;;;;;4.70;3.70;;;18.60;60.00;;;;;;4204541;28;20035;-64
2022/04/24 14:28:39;;;;;;;5.22;3.47;;;18.40;61.50;;;;;;4201419;28;20047;-64
2022/04/24 14:30:43;;;;;;;5.35;3.25;;;18.50;64.40;;;;;;4205298;28;20039;-64
2022/04/24 14:32:44;;;;;;;5.07;3.42;;;18.50;65.10;;;;;;4194887;28;20028;-64
2022/04/24 14:34:44;;;;;;;7.15;3.83;;;18.50;64.90;;;;;;4189081;28;20039;-64
2022/04/24 14:36:45;;;;;;;3.97;3.25;;;18.50;64.50;;;;;;4190370;28;20112;-64
2022/04/24 14:38:46;;;;;;;5.60;3.45;;;18.70;67.20;;;;;;4187235;28;20094;-64
2022/04/24 14:40:46;;;;;;;3.67;3.00;;;18.60;64.70;;;;;;4186897;28;20064;-65
2022/04/24 14:42:47;;;;;;;5.40;3.08;;;18.60;64.20;;;;;;4189018;28;20043;-65
2022/04/24 14:44:48;;;;;;;3.55;2.70;;;18.50;63.80;;;;;;4195590;28;20048;-65
2022/04/24 14:56:05;;;;;;;4.60;3.15;;;18.40;66.90;;;;;;4189525;28;20115;-63
2022/04/24 14:58:07;;;;;;;6.07;3.28;;;18.40;65.40;;;;;;4191317;28;20086;-63
2022/04/24 15:00:08;;;;;;;3.97;3.08;;;18.30;65.10;;;;;;4188803;28;20040;-63
2022/04/24 15:02:11;;;;;;;4.28;2.92;;;18.20;64.10;;;;;;4190249;28;20028;-64
2022/04/24 15:04:12;;;;;;;;;;;18.30;64.30;;;;;;4192133;28;20036;-64
2022/04/24 15:06:13;;;;;;;4.97;3.17;;;18.10;63.30;;;;;;4187797;28;20359;-64
2022/04/24 15:08:14;;;;;;;4.45;3.30;;;18.30;67.70;;;;;;4189740;28;20035;-64
2022/04/24 15:10:15;;;;;;;3.92;2.70;;;18.40;68.60;;;;;;4189798;28;20045;-64
2022/04/24 15:12:16;;;;;;;5.22;2.90;;;18.50;69.20;;;;;;4190445;28;20024;-64
2022/04/24 15:14:16;;;;;;;5.30;3.05;;;18.60;71.40;;;;;;4189094;28;20064;-65
2022/04/24 15:16:17;;;;;;;5.95;3.03;;;18.70;69.60;;;;;;4193608;28;20021;-65
2022/04/24 15:18:18;;;;;;;3.40;2.65;;;18.70;70.30;;;;;;4191260;28;20029;-66
2022/04/24 15:20:18;;;;;;;4.35;2.90;;;18.70;72.10;;;;;;4192438;28;20052;-65
2022/04/24 15:22:20;;;;;;;3.65;2.85;;;18.80;70.00;;;;;;4189961;28;20392;-66
2022/04/24 15:24:21;;;;;;;4.00;2.88;;;18.80;68.50;;;;;;4185152;28;20036;-65
2022/04/24 15:26:22;;;;;;;4.47;3.30;;;18.70;69.30;;;;;;4190377;28;20033;-65
2022/04/24 15:28:22;;;;;;;4.40;2.75;;;18.80;70.50;;;;;;4193126;28;20193;-65
2022/04/24 15:30:23;;;;;;;6.05;3.00;;;18.80;70.20;;;;;;4192536;28;20453;-65
2022/04/24 15:32:24;;;;;;;4.97;3.05;;;18.80;70.70;;;;;;4187061;28;20116;-65
2022/04/24 15:34:24;;;;;;;7.18;3.05;;;18.80;71.20;;;;;;4191969;28;20069;-65
2022/04/24 15:36:25;;;;;;;4.40;3.40;;;18.80;69.70;;;;;;4190946;28;20107;-64
2022/04/24 15:38:25;;;;;;;3.85;3.22;;;18.40;66.40;;;;;;4188415;28;20480;-64
2022/04/24 15:40:26;;;;;;;4.72;3.40;;;18.20;65.70;;;;;;4188345;28;20407;-64
2022/04/24 15:42:27;;;;;;;4.40;3.63;;;18.20;64.90;;;;;;4189762;28;20048;-63
2022/04/24 15:45:10;;;;;;;4.32;3.30;;;17.90;64.70;;;;;;4192083;28;20032;-64
2022/04/24 15:46:48;;;;;;;5.10;3.13;;;18.00;66.40;;;;;;4187324;28;20037;-64
2022/04/24 15:48:48;;;;;;;4.13;3.05;;;18.00;64.60;;;;;;4186899;28;20055;-65
2022/04/24 15:50:50;;;;;;;5.43;3.72;;;18.10;66.80;;;;;;4187942;28;20459;-64
2022/04/24 15:52:50;;;;;;;3.03;2.70;;;18.00;65.30;;;;;;4190765;28;20134;-65
2022/04/24 15:54:51;;;;;;;5.57;3.13;;;18.00;66.60;;;;;;4189659;28;20033;-65
2022/04/24 15:56:52;;;;;;;5.03;3.30;;;18.00;65.70;;;;;;4188030;28;20051;-65
2022/04/24 15:58:54;;;;;;;4.63;3.10;;;18.00;65.10;;;;;;4194211;28;20556;-64
2022/04/24 16:00:55;;;;;;;3.90;3.03;;;18.00;67.40;;;;;;4187630;28;20504;-64
2022/04/24 16:02:59;;;;;;;3.30;2.58;;;18.10;67.40;;;;;;4193603;28;20048;-64
2022/04/24 16:05:02;;;;;;;3.65;3.05;;;18.10;67.00;;;;;;4192567;28;20044;-64
2022/04/24 16:07:02;;;;;;;6.65;2.92;;;17.80;67.60;;;;;;4187065;28;20090;-65
2022/04/24 16:09:04;;;;;;;6.78;3.17;;;17.80;68.20;;;;;;4189271;28;20499;-64
2022/04/24 16:11:05;;;;;;;4.63;3.17;;;17.90;68.50;;;;;;4192867;28;20419;-65
2022/04/24 16:13:06;;;;;;;6.65;3.47;;;17.90;70.40;;;;;;4191127;28;20032;-64
2022/04/24 16:15:07;;;;;;;6.13;3.28;;;17.90;68.40;;;;;;4189689;28;20136;-66
2022/04/24 16:17:08;;;;;;;5.45;3.05;;;18.10;70.70;;;;;;4191449;28;20033;-65
2022/04/24 16:19:08;;;;;;;3.53;2.80;;;18.20;72.50;;;;;;4188875;28;20040;-64
2022/04/24 16:21:09;;;;;;;4.05;3.00;;;18.30;72.70;;;;;;4190040;28;20425;-64
2022/04/24 16:23:10;;;;;;;5.40;2.67;;;18.40;72.60;;;;;;4191744;28;20128;-64
2022/04/24 16:25:11;;;;;;;4.72;2.70;;;18.40;72.50;;;;;;4192148;28;20471;-65
2022/04/24 16:27:12;;;;;;;4.55;2.90;;;18.50;70.90;;;;;;4191234;28;20045;-64
2022/04/24 16:29:55;;;;;;;5.00;2.55;;;18.50;71.50;;;;;;4190055;28;20082;-65
2022/04/24 16:31:34;;;;;;;4.20;2.72;;;18.60;70.80;;;;;;4183871;28;20049;-66
2022/04/24 16:33:36;;;;;;;5.07;3.03;;;18.70;73.20;;;;;;4189890;28;20036;-65
2022/04/24 16:35:36;;;;;;;4.15;2.60;;;18.70;72.00;;;;;;4187133;28;20102;-65
2022/04/24 16:37:38;;;;;;;4.70;2.75;;;18.70;72.20;;;;;;4189402;28;20032;-64
2022/04/24 16:39:39;;;;;;;3.55;2.45;;;18.50;68.50;;;;;;4183529;28;25148;-64
2022/04/24 16:41:40;;;;;;;2.85;2.30;;;18.60;69.20;;;;;;4182101;28;20037;-64
2022/04/24 16:43:40;;;;;;;3.10;2.30;;;18.70;71.40;;;;;;4192664;28;20484;-65
2022/04/24 16:45:42;;;;;;;3.20;2.10;;;18.70;72.00;;;;;;4188768;28;20892;-65
2022/04/24 16:47:43;;;;;;;4.50;2.40;;;18.70;73.50;;;;;;4186574;28;20035;-64
2022/04/24 16:49:43;;;;;;;3.33;2.72;;;18.80;70.40;;;;;;4189991;28;20021;-65
2022/04/24 16:58:44;;;;;;;6.30;2.67;;;18.80;68.50;;;;;;4190428;28;20921;-64
2022/04/24 17:00:47;;;;;;;3.40;2.40;;;18.80;69.10;;;;;;4188326;28;20098;-65
2022/04/24 17:02:48;;;;;;;6.25;2.80;;;18.80;69.80;;;;;;4190956;28;20056;-65
2022/04/24 17:04:48;;;;;;;5.88;2.60;;;18.80;68.70;;;;;;4190444;28;20039;-65
2022/04/24 17:06:49;;;;;;;4.20;2.75;;;18.70;65.80;;;;;;4188463;28;20396;-65
2022/04/24 17:08:50;;;;;;;5.22;2.92;;;18.70;71.80;;;;;;4189037;28;20122;-65
2022/04/24 17:10:50;;;;;;;8.20;3.00;;;18.60;71.30;;;;;;4191622;28;20049;-65
2022/04/24 17:12:51;;;;;;;5.97;3.00;;;18.60;72.40;;;;;;4185932;28;20408;-65
2022/04/24 17:14:51;;;;;;;4.50;2.70;;;18.50;71.50;;;;;;4188379;28;20042;-65
2022/04/24 17:16:52;;;;;;;5.25;2.67;;;18.50;72.20;;;;;;4190112;28;20060;-65
2022/04/24 17:18:53;;;;;;;3.35;2.58;;;18.40;74.00;;;;;;4185721;28;20505;-64
2022/04/24 17:20:55;;;;;;;5.68;3.20;;;18.40;73.70;;;;;;4185793;28;20060;-65
2022/04/24 17:22:59;;;;;;;6.17;2.70;;;18.40;73.80;;;;;;4191512;28;20487;-64
2022/04/24 17:25:00;;;;;;;6.50;3.55;;;18.40;71.40;;;;;;4184425;28;20025;-64
2022/04/24 17:27:01;;;;;;;5.30;2.80;;;18.30;73.10;;;;;;4189885;28;20057;-64
2022/04/24 17:29:02;;;;;;;5.40;2.70;;;18.30;74.10;;;;;;4190481;28;20048;-64
2022/04/24 17:31:06;;;;;;;6.22;3.20;;;18.20;73.60;;;;;;4181372;28;20532;-64
2022/04/24 17:33:07;;;;;;;4.88;3.17;;;18.20;74.60;;;;;;4188357;28;20036;-65
2022/04/24 17:35:07;;;;;;;4.20;3.10;;;18.10;73.80;;;;;;4187866;28;20036;-65
2022/04/24 17:37:09;;;;;;;4.32;2.75;;;18.00;73.70;;;;;;4187716;28;20037;-64
2022/04/24 17:39:09;;;;;;;5.45;3.60;;;18.10;76.10;;;;;;4189477;28;20125;-64
2022/04/24 17:41:10;;;;;;;4.78;2.78;;;18.10;76.10;;;;;;4178584;28;20122;-65
2022/04/24 17:43:11;;;;;;;4.38;3.03;;;18.00;73.70;;;;;;4190657;28;20476;-64
2022/04/24 17:45:11;;;;;;;7.70;2.80;;;18.00;75.60;;;;;;4190842;28;20177;-65
2022/04/24 17:47:13;;;;;;;4.75;3.00;;;18.00;75.60;;;;;;4183801;28;20048;-65
2022/04/24 17:49:15;;;;;;;5.18;3.17;;;17.90;76.40;;;;;;4182544;28;20053;-64
2022/04/24 17:51:16;;;;;;;5.28;3.17;;;17.90;75.20;;;;;;4186696;28;20119;-64
2022/04/24 17:53:19;;;;;;;5.80;2.90;;;17.90;77.30;;;;;;4183606;28;20029;-65
2022/04/24 17:55:20;;;;;;;6.35;3.58;;;17.80;77.70;;;;;;4182883;28;20049;-66
2022/04/24 17:57:21;;;;;;;5.43;3.00;;;17.80;74.70;;;;;;4186141;28;20553;-66
2022/04/24 17:59:22;;;;;;;5.38;3.10;;;17.80;76.60;;;;;;4189480;28;20457;-65
2022/04/24 18:01:22;;;;;;;3.70;2.80;;;17.80;77.10;;;;;;4188892;28;20037;-65
2022/04/24 18:03:23;;;;;;;4.55;3.25;;;17.80;77.70;;;;;;4189662;28;20407;-65
2022/04/24 18:05:25;;;;;;;4.65;3.15;;;17.70;75.20;;;;;;4189964;28;20120;-65
2022/04/24 18:07:26;;;;;;;9.38;3.15;;;17.70;77.10;;;;;;4192231;28;20113;-65
2022/04/24 18:09:26;;;;;;;4.32;3.00;;;17.60;77.70;;;;;;4191931;28;20399;-65
2022/04/24 18:11:28;;;;;;;4.43;2.90;;;17.60;77.50;;;;;;4192189;28;20479;-64
2022/04/24 18:13:28;;;;;;;5.20;3.20;;;17.50;74.90;;;;;;4194734;28;20081;-64
2022/04/24 18:15:32;;;;;;;3.58;2.80;;;17.50;76.50;;;;;;4192316;28;20094;-64
2022/04/24 18:17:32;;;;;;;5.38;3.28;;;17.30;73.00;;;;;;4193305;28;20448;-63
2022/04/24 18:19:33;;;;;;;5.82;3.20;;;17.30;73.90;;;;;;4191537;28;20044;-64
2022/04/24 18:21:34;;;;;;;6.35;2.53;;;17.30;76.10;;;;;;4193932;28;20136;-64
2022/04/24 18:23:35;;;;;;;6.72;2.92;;;17.30;77.60;;;;;;4194716;28;20051;-67
2022/04/24 18:25:35;;;;;;;4.63;2.95;;;17.20;76.80;;;;;;4191341;28;20028;-65
2022/04/24 18:27:36;;;;;;;4.60;2.83;;;17.20;74.10;;;;;;4181052;28;20036;-64
2022/04/24 18:29:36;;;;;;;5.97;2.70;;;17.30;77.50;;;;;;4193473;28;20102;-64
2022/04/24 18:31:39;;;;;;;5.18;3.25;;;17.20;76.00;;;;;;4191925;28;20463;-64
2022/04/24 18:33:39;;;;;;;8.95;3.03;;;17.10;76.90;;;;;;4193930;28;20044;-64
2022/04/24 18:37:59;;;;;;;3.17;2.58;;;17.10;79.20;;;;;;4191384;28;20049;-64
2022/04/24 18:40:00;;;;;;;4.35;2.75;;;17.10;76.50;;;;;;4192240;28;20375;-64
2022/04/24 18:42:00;;;;;;;5.43;3.30;;;17.10;78.20;;;;;;4191584;28;20598;-64
2022/04/24 18:44:01;;;;;;;3.13;2.42;;;17.10;78.60;;;;;;4190549;28;20472;-64
2022/04/24 18:46:03;;;;;;;4.40;3.20;;;17.00;77.20;;;;;;4193746;28;20041;-64
2022/04/24 18:48:04;;;;;;;4.75;3.20;;;17.00;79.40;;;;;;4190226;28;20112;-64
2022/04/24 18:50:05;;;;;;;6.68;3.20;;;16.90;76.10;;;;;;4187744;28;20060;-64
2022/04/24 18:52:06;;;;;;;3.85;2.90;;;17.00;78.10;;;;;;4194074;28;20485;-65
2022/04/24 18:54:07;;;;;;;4.20;3.05;;;16.80;76.50;;;;;;4193422;28;20039;-64
2022/04/24 18:56:08;;;;;;;8.88;3.20;;;16.80;77.90;;;;;;4193695;28;20700;-64
2022/04/24 18:58:08;;;;;;;5.50;3.50;;;16.80;77.00;;;;;;4191836;28;20021;-64
2022/04/24 19:00:09;;;;;;;5.22;3.10;;;16.90;77.70;;;;;;4190679;28;20543;-65
2022/04/24 19:02:10;;;;;;;4.28;2.90;;;16.80;78.70;;;;;;4190986;28;20085;-64
2022/04/24 19:08:50;;;;;;;6.32;3.42;;;16.80;79.50;;;;;;4188015;28;20029;-64
2022/04/24 19:13:09;;;;;;;5.80;3.47;;;16.60;82.10;;;;;;4188996;28;20033;-64
2022/04/24 19:15:10;;;;;;;6.20;3.60;;;16.60;81.20;;;;;;4189775;28;20403;-64
2022/04/24 19:17:11;;;;;;;3.58;2.97;;;16.50;82.30;;;;;;4187570;28;20040;-64
2022/04/24 19:19:12;;;;;;;5.45;3.75;;;16.50;80.80;;;;;;4192488;28;20163;-64
2022/04/24 19:21:12;;;;;;;4.15;2.90;;;16.40;82.80;;;;;;4190817;28;20565;-64
2022/04/24 19:23:13;;;;;;;3.10;2.47;;;16.30;80.20;;;;;;4188677;28;20173;-64
2022/04/24 19:25:15;;;;;;;6.85;3.40;;;16.30;83.50;;;;;;4190097;28;20029;-64
2022/04/24 19:27:16;;;;;;;7.30;3.63;;;16.20;83.20;;;;;;4181491;28;20116;-64
2022/04/24 19:29:17;;;;;;;8.25;2.60;;;16.10;85.60;;;;;;4187591;28;20395;-64
2022/04/24 19:31:17;;;;;;;5.25;3.00;;;16.10;86.50;;;;;;4181063;28;20029;-63
2022/04/24 19:33:18;;;;;;;4.10;2.70;;;16.00;86.40;;;;;;4184333;28;20032;-63
2022/04/24 19:35:19;;;;;;;4.38;2.92;;;16.00;85.90;;;;;;4188450;28;20404;-64
2022/04/24 19:37:20;;;;;;;3.83;2.72;;;16.00;85.80;;;;;;4189069;28;20074;-63
2022/04/24 19:39:20;;;;;;;6.38;2.97;;;16.00;85.40;;;;;;4192284;28;20475;-64
2022/04/24 19:41:22;;;;;;;6.13;2.88;;;16.00;86.30;;;;;;4185737;28;20039;-65
2022/04/24 19:43:24;;;;;;;5.72;2.90;;;15.90;86.30;;;;;;4188952;28;20037;-64
2022/04/24 19:45:24;;;;;;;3.67;2.87;;;15.90;87.00;;;;;;4191746;28;20041;-64
2022/04/24 19:47:25;;;;;;;4.25;2.72;;;15.90;86.80;;;;;;4192208;28;22690;-64
2022/04/24 19:49:26;;;;;;;3.78;2.60;;;15.90;86.00;;;;;;4192104;28;20048;-63
2022/04/24 19:51:28;;;;;;;3.85;2.55;;;15.80;86.30;;;;;;4177565;28;20487;-64
2022/04/24 19:53:29;;;;;;;4.30;2.75;;;15.80;86.00;;;;;;4189277;28;20085;-64
2022/04/24 19:55:31;;;;;;;4.65;3.00;;;15.80;84.00;;;;;;4191785;28;20033;-64
2022/04/24 19:57:31;;;;;;;3.30;2.50;;;15.80;86.00;;;;;;4190316;28;20041;-64
2022/04/24 19:59:32;;;;;;;3.50;2.58;;;15.80;85.80;;;;;;4191664;28;20033;-63
2022/04/24 20:01:33;;;;;;;4.93;2.33;;;15.70;85.80;;;;;;4189843;28;20040;-63
2022/04/24 20:03:33;;;;;;;3.28;2.40;;;15.70;86.60;;;;;;4187224;28;20112;-63
2022/04/24 20:05:34;;;;;;;3.08;2.20;;;15.70;87.40;;;;;;4190099;28;20465;-63
2022/04/24 20:07:35;;;;;;;5.45;2.83;;;15.70;86.60;;;;;;4189220;28;20076;-63
2022/04/24 20:09:36;;;;;;;6.60;2.92;;;15.70;87.40;;;;;;4184899;28;20041;-65
2022/04/24 20:11:40;;;;;;;3.47;2.88;;;15.70;86.60;;;;;;4189665;28;20506;-63
2022/04/24 20:13:41;;;;;;;4.25;2.65;;;15.60;86.80;;;;;;4189759;28;20145;-63
2022/04/24 20:15:42;;;;;;;5.75;3.10;;;15.60;87.50;;;;;;4188637;28;20109;-63
2022/04/24 20:17:42;;;;;;;6.75;2.80;;;15.60;86.30;;;;;;4191708;28;20036;-64
2022/04/24 20:19:44;;;;;;;5.07;3.20;;;15.60;85.80;;;;;;4192438;28;20547;-63
2022/04/24 20:21:45;;;;;;;7.00;3.03;;;15.50;87.50;;;;;;4185536;28;20049;-63
2022/04/24 20:23:47;;;;;;;4.93;3.25;;;15.50;87.10;;;;;;4189009;28;20028;-63
2022/04/24 20:25:48;;;;;;;6.93;3.22;;;15.50;87.00;;;;;;4188910;28;20090;-64
2022/04/24 20:27:49;;;;;;;6.32;2.90;;;15.50;86.50;;;;;;4182208;28;20095;-63
2022/04/24 20:29:50;;;;;;;4.23;2.73;;;15.40;87.00;;;;;;4188949;28;20447;-63
2022/04/24 20:31:51;;;;;;;5.55;3.22;;;15.40;86.80;;;;;;4192107;28;20036;-63
2022/04/24 20:33:52;;;;;;;6.72;3.10;;;15.40;86.90;;;;;;4186422;28;20039;-63
2022/04/24 20:35:53;;;;;;;4.57;3.00;;;15.40;87.80;;;;;;4191129;28;20035;-64
2022/04/24 20:37:54;;;;;;;6.53;3.17;;;15.30;86.80;;;;;;4190688;28;20024;-64
2022/04/24 20:39:54;;;;;;;3.50;2.80;;;15.30;86.90;;;;;;4189211;28;20123;-64
2022/04/24 20:41:55;;;;;;;5.85;3.58;;;15.20;88.10;;;;;;4189623;28;20036;-64
2022/04/24 20:44:02;;;;;;;4.57;3.15;;;15.20;87.60;;;;;;4191489;28;20063;-64
2022/04/24 20:46:03;;;;;;;5.25;3.10;;;15.20;86.00;;;;;;4185570;28;20033;-63
2022/04/24 20:48:04;;;;;;;4.72;2.92;;;15.20;87.30;;;;;;4190088;28;20448;-63
2022/04/24 20:50:05;;;;;;;3.97;2.83;;;15.20;89.10;;;;;;4190580;28;20037;-64
2022/04/24 20:52:08;;;;;;;4.65;2.85;;;15.10;88.30;;;;;;4188474;28;20025;-63
2022/04/24 20:54:08;;;;;;;5.30;3.40;;;15.20;88.30;;;;;;4186726;28;20044;-64
2022/04/24 20:56:09;;;;;;;6.97;3.33;;;15.10;87.20;;;;;;4193322;28;20028;-64
2022/04/24 20:58:09;;;;;;;5.72;3.35;;;15.00;88.40;;;;;;4189625;28;20036;-64
2022/04/24 21:00:11;;;;;;;6.80;3.42;;;14.70;91.90;;;;;;4186901;28;20021;-65
2022/04/24 21:02:16;;;;;;;6.30;3.53;;;14.80;94.20;;;;;;4187939;28;20082;-63
2022/04/24 21:04:18;;;;;;;5.28;3.10;;;14.70;95.50;;;;;;4188986;28;20035;-63
2022/04/24 21:06:18;;;;;;;5.20;3.55;;;14.60;96.90;;;;;;4188359;28;20551;-63
2022/04/24 21:08:19;;;;;;;4.95;3.55;;;14.70;98.20;;;;;;4188641;28;20083;-63
2022/04/24 21:10:22;;;;;;;5.03;3.20;;;14.50;98.00;;;;;;4190995;28;20462;-63
2022/04/24 21:12:23;;;;;;;5.50;3.13;;;14.50;98.70;;;;;;4187781;28;20416;-64
2022/04/24 21:14:23;;;;;;;4.38;3.20;;;14.50;99.60;;;;;;4189507;28;20028;-64
2022/04/24 21:16:27;;;;;;;3.50;2.75;;;14.40;99.40;;;;;;4189685;28;20039;-64
2022/04/24 21:18:28;;;;;;;4.32;3.15;;;14.30;99.00;;;;;;4187685;28;20033;-64
2022/04/24 21:20:29;;;;;;;3.45;2.65;;;14.40;99.90;;;;;;4187606;28;20127;-63
2022/04/24 21:22:30;;;;;;;4.20;3.55;;;14.30;99.90;;;;;;4189356;28;20048;-64
2022/04/24 21:24:31;;;;;;;4.22;2.47;;;14.20;99.90;;;;;;4187509;28;20119;-63
2022/04/24 21:26:31;;;;;;;5.20;2.85;;;14.10;99.90;;;;;;4185803;28;20522;-63
2022/04/24 21:28:32;;;;;;;3.92;2.88;;;14.10;99.90;;;;;;4182753;28;20036;-63
2022/04/24 21:30:33;;;;;;;3.55;3.00;;;14.10;99.90;;;;;;4186035;28;20029;-63
2022/04/24 21:32:33;;;;;;;4.35;3.03;;;14.10;99.90;;;;;;4183831;28;20025;-64
2022/04/24 21:34:34;;;;;;;5.05;2.95;;;14.10;99.90;;;;;;4187449;28;20402;-63
2022/04/24 21:36:35;;;;;;;3.45;2.92;;;14.10;99.90;;;;;;4184511;28;20165;-63
2022/04/24 21:38:35;;;;;;;6.97;3.00;;;14.20;99.90;;;;;;4188649;28;20559;-64
2022/04/24 21:40:36;;;;;;;3.75;3.08;;;14.20;99.90;;;;;;4183541;28;20041;-63
2022/04/24 21:42:37;;;;;;;6.20;2.92;;;14.20;99.90;;;;;;4192227;28;20028;-66
2022/04/24 21:44:38;;;;;;;3.97;2.47;;;14.20;99.90;;;;;;4192674;28;20041;-64
2022/04/24 21:46:39;;;;;;;4.45;3.05;;;14.20;99.90;;;;;;4184539;28;20083;-64
2022/04/24 21:48:40;;;;;;;3.95;3.15;;;14.20;99.90;;;;;;4191128;28;20037;-64
2022/04/24 21:50:41;;;;;;;3.22;2.65;;;14.20;99.90;;;;;;4190398;28;20470;-64
2022/04/24 21:52:42;;;;;;;4.10;3.30;;;14.20;99.90;;;;;;4193277;28;20051;-64
2022/04/24 21:54:42;;;;;;;4.25;2.80;;;14.20;99.90;;;;;;4189600;28;20041;-63
2022/04/24 21:56:43;;;;;;;5.53;2.80;;;14.20;99.90;;;;;;4190778;28;20036;-64
2022/04/24 21:58:43;;;;;;;5.60;3.13;;;14.30;99.90;;;;;;4185297;28;20025;-64
2022/04/24 22:00:50;;;;;;;3.50;2.90;;;14.20;99.90;;;;;;4187537;28;20119;-64
2022/04/24 22:05:10;;;;;;;4.68;3.20;;;14.20;99.90;;;;;;4187546;28;20040;-66
2022/04/24 22:07:10;;;;;;;6.05;3.10;;;14.10;99.90;;;;;;4184017;28;20091;-64
2022/04/24 22:09:11;;;;;;;5.93;3.60;;;14.00;99.90;;;;;;4188593;28;20033;-64
2022/04/24 22:11:12;;;;;;;4.45;3.50;;;14.00;99.90;;;;;;4190266;28;20039;-64
2022/04/24 22:13:12;;;;;;;5.13;3.80;;;13.90;99.90;;;;;;4187610;28;20044;-64
2022/04/24 22:15:14;;;;;;;6.28;4.00;;;13.90;99.90;;;;;;4190138;28;20033;-64
2022/04/24 22:17:14;;;;;;;7.60;4.30;;;13.70;99.90;;;;;;4188571;28;20108;-64
2022/04/24 22:19:15;;;;;;;9.27;4.90;;;13.50;99.90;;;;;;4192002;28;20039;-64
2022/04/24 22:25:58;;;;;;;5.32;3.92;;;13.40;99.90;;;;;;4188438;28;20025;-64
2022/04/24 22:27:59;;;;;;;7.07;3.63;;;13.40;99.90;;;;;;4186358;28;20215;-64
2022/04/24 22:29:59;;;;;;;5.03;4.18;;;13.50;99.90;;;;;;4190236;28;20495;-63
2022/04/24 22:32:01;;;;;;;6.28;4.20;;;13.40;99.90;;;;;;4194569;28;20471;-63
2022/04/24 22:34:02;;;;;;;5.82;4.38;;;13.50;99.90;;;;;;4188553;28;20067;-63
2022/04/24 22:36:02;;;;;;;5.47;3.65;;;13.40;99.90;;;;;;4185998;28;20044;-63
2022/04/24 22:38:08;;;;;;;8.45;4.32;;;13.40;99.90;;;;;;4188161;28;20067;-63
2022/04/24 22:40:09;;;;;;;5.22;4.10;;;13.30;99.90;;;;;;4184226;28;20033;-63
2022/04/24 22:42:10;;;;;;;6.82;3.92;;;13.20;99.90;;;;;;4190632;28;20503;-64
2022/04/24 22:44:10;;;;;;;4.93;3.75;;;13.30;99.90;;;;;;4190858;28;20153;-64
2022/04/24 22:46:11;;;;;;;4.45;3.50;;;13.30;99.90;;;;;;4191313;28;20056;-64
2022/04/24 22:48:11;;;;;;;6.20;4.10;;;13.30;99.90;;;;;;4192257;28;20063;-63
2022/04/24 22:50:15;;;;;;;5.07;4.00;;;13.30;99.90;;;;;;4190373;28;20031;-63
2022/04/24 22:52:16;;;;;;;4.82;3.83;;;13.40;99.90;;;;;;4189169;28;20052;-63
2022/04/24 22:54:16;;;;;;;6.65;4.32;;;13.30;99.90;;;;;;4190049;28;20033;-64
2022/04/24 22:56:18;;;;;;;9.00;4.65;;;13.30;99.90;;;;;;4185063;28;20112;-63
2022/04/24 22:58:19;;;;;;;6.10;4.28;;;13.30;99.90;;;;;;4182985;28;20040;-63
2022/04/24 23:00:20;;;;;;;4.28;3.47;;;13.30;99.90;;;;;;4188882;28;20032;-63
2022/04/24 23:02:20;;;;;;;7.47;4.20;;;13.30;99.90;;;;;;4186614;28;20053;-63
2022/04/24 23:04:21;;;;;;;8.68;3.70;;;13.30;99.90;;;;;;4188841;28;20025;-63
2022/04/24 23:06:23;;;;;;;5.45;3.72;;;13.30;99.90;;;;;;4186658;28;20127;-64
2022/04/24 23:08:24;;;;;;;4.60;3.47;;;13.30;99.90;;;;;;4183083;28;20358;-64
2022/04/24 23:10:24;;;;;;;5.28;3.63;;;13.30;99.90;;;;;;4186950;28;20082;-64
2022/04/24 23:12:26;;;;;;;5.30;3.63;;;13.30;99.90;;;;;;4192457;28;20024;-64
2022/04/24 23:14:26;;;;;;;5.03;3.90;;;13.30;99.90;;;;;;4190353;28;20035;-63
2022/04/24 23:16:27;;;;;;;4.78;3.60;;;13.30;99.90;;;;;;4188413;28;20391;-63
2022/04/24 23:20:46;;;;;;;3.60;3.10;;;13.40;99.90;;;;;;4188492;28;20037;-63
2022/04/24 23:22:47;;;;;;;4.82;3.47;;;13.40;99.90;;;;;;4192423;28;20506;-63
2022/04/24 23:24:48;;;;;;;8.55;3.78;;;13.30;99.90;;;;;;4184969;28;20063;-63
2022/04/24 23:26:49;;;;;;;5.28;3.60;;;13.20;99.90;;;;;;4190755;28;20121;-63
2022/04/24 23:28:49;;;;;;;4.82;3.80;;;12.90;99.90;;;;;;4186953;28;20033;-63
2022/04/24 23:30:52;;;;;;;5.35;3.85;;;12.60;99.90;;;;;;4187797;28;20108;-63
2022/04/24 23:32:52;;;;;;;4.93;3.88;;;12.60;99.90;;;;;;4192795;28;20399;-63
2022/04/24 23:34:53;;;;;;;4.80;3.53;;;12.40;99.90;;;;;;4192664;28;20107;-64
2022/04/24 23:36:54;;;;;;;4.70;3.65;;;12.30;99.90;;;;;;4187137;28;20021;-64
2022/04/24 23:38:54;;;;;;;5.75;4.03;;;12.10;99.90;;;;;;4193773;28;20357;-64
2022/04/24 23:40:55;;;;;;;4.60;3.55;;;11.90;99.90;;;;;;4189736;28;20102;-63
2022/04/24 23:42:55;;;;;;;4.60;3.40;;;11.80;99.90;;;;;;4187534;28;20036;-64
2022/04/24 23:44:56;;;;;;;4.15;3.22;;;12.00;99.90;;;;;;4189911;28;20037;-64
2022/04/24 23:46:57;;;;;;;4.18;3.30;;;12.10;99.90;;;;;;4188259;28;20503;-64
2022/04/24 23:48:58;;;;;;;3.97;2.97;;;12.20;99.90;;;;;;4191487;28;20041;-63
2022/04/24 23:50:59;;;;;;;5.72;3.15;;;12.30;99.90;;;;;;4186629;28;20052;-63
2022/04/24 23:52:59;;;;;;;5.22;3.40;;;12.40;99.90;;;;;;4186597;28;20047;-63
2022/04/24 23:55:00;;;;;;;4.32;3.65;;;12.40;99.90;;;;;;4191641;28;20093;-63
2022/04/24 23:57:01;;;;;;;3.75;3.35;;;12.50;99.90;;;;;;4185543;28;20059;-63
2022/04/24 23:59:02;;;;;;;5.75;3.60;;;12.60;99.90;;;;;;4187334;28;20036;-63
